sensor_id;sensor_type;location;lat;lon;timestamp;pressure;altitude;pressure_sealevel;temperature;humidity
35716;BME280;21840;44.920;8.616;2023-02-11T00:01:31;102604.59;;;3.60;42.14
35716;BME280;21840;44.920;8.616;2023-02-11T00:03:58;102609.00;;;3.14;42.53
35716;BME280;21840;44.920;8.616;2023-02-11T00:06:25;102603.63;;;3.23;42.64
35716;BME280;21840;44.920;8.616;2023-02-11T00:08:52;102608.66;;;2.89;42.71
35716;BME280;21840;44.920;8.616;2023-02-11T00:11:20;102609.31;;;2.99;42.90
35716;BME280;21840;44.920;8.616;2023-02-11T00:13:46;102609.22;;;2.60;43.75
35716;BME280;21840;44.920;8.616;2023-02-11T00:16:14;102615.03;;;2.73;43.69
35716;BME280;21840;44.920;8.616;2023-02-11T00:18:40;102616.66;;;2.78;43.02
35716;BME280;21840;44.920;8.616;2023-02-11T00:21:08;102608.19;;;2.69;43.71
35716;BME280;21840;44.920;8.616;2023-02-11T00:23:34;102608.88;;;2.78;43.61
35716;BME280;21840;44.920;8.616;2023-02-11T00:25:59;102609.03;;;2.69;43.84
35716;BME280;21840;44.920;8.616;2023-02-11T00:28:25;102607.72;;;2.47;43.92
35716;BME280;21840;44.920;8.616;2023-02-11T00:30:55;102610.38;;;2.44;44.62
35716;BME280;21840;44.920;8.616;2023-02-11T00:33:20;102610.78;;;2.19;44.45
35716;BME280;21840;44.920;8.616;2023-02-11T00:35:45;102615.50;;;2.47;44.28
35716;BME280;21840;44.920;8.616;2023-02-11T00:38:11;102614.34;;;2.65;43.97
35716;BME280;21840;44.920;8.616;2023-02-11T00:40:36;102618.97;;;2.46;44.11
35716;BME280;21840;44.920;8.616;2023-02-11T00:43:02;102617.00;;;2.60;44.05
35716;BME280;21840;44.920;8.616;2023-02-11T00:45:27;102625.03;;;2.93;43.25
35716;BME280;21840;44.920;8.616;2023-02-11T00:47:55;102611.91;;;2.99;43.42
35716;BME280;21840;44.920;8.616;2023-02-11T00:50:21;102610.91;;;3.06;42.80
35716;BME280;21840;44.920;8.616;2023-02-11T00:52:47;102613.94;;;3.27;43.10
35716;BME280;21840;44.920;8.616;2023-02-11T00:55:12;102617.78;;;3.49;42.69
35716;BME280;21840;44.920;8.616;2023-02-11T00:57:38;102613.28;;;3.17;42.39
35716;BME280;21840;44.920;8.616;2023-02-11T01:00:05;102616.81;;;3.14;43.20
35716;BME280;21840;44.920;8.616;2023-02-11T01:02:30;102607.81;;;2.89;43.16
35716;BME280;21840;44.920;8.616;2023-02-11T01:04:56;102615.28;;;2.59;43.54
35716;BME280;21840;44.920;8.616;2023-02-11T01:07:25;102603.88;;;3.13;42.75
35716;BME280;21840;44.920;8.616;2023-02-11T01:09:50;102611.47;;;2.78;43.37
35716;BME280;21840;44.920;8.616;2023-02-11T01:12:16;102604.06;;;3.02;43.02
35716;BME280;21840;44.920;8.616;2023-02-11T01:14:41;102593.69;;;2.57;44.09
35716;BME280;21840;44.920;8.616;2023-02-11T01:17:07;102600.56;;;2.59;43.40
35716;BME280;21840;44.920;8.616;2023-02-11T01:19:32;102605.41;;;2.31;44.12
35716;BME280;21840;44.920;8.616;2023-02-11T01:21:58;102601.09;;;2.78;43.94
35716;BME280;21840;44.920;8.616;2023-02-11T01:24:23;102589.47;;;2.98;43.15
35716;BME280;21840;44.920;8.616;2023-02-11T01:26:48;102596.34;;;2.99;43.02
35716;BME280;21840;44.920;8.616;2023-02-11T01:29:14;102597.06;;;3.07;43.05
35716;BME280;21840;44.920;8.616;2023-02-11T01:31:39;102596.63;;;2.85;43.31
35716;BME280;21840;44.920;8.616;2023-02-11T01:34:05;102587.66;;;2.56;43.79
35716;BME280;21840;44.920;8.616;2023-02-11T01:36:30;102579.31;;;2.41;44.56
35716;BME280;21840;44.920;8.616;2023-02-11T01:38:58;102585.56;;;2.29;44.50
35716;BME280;21840;44.920;8.616;2023-02-11T01:41:24;102585.19;;;2.01;44.63
35716;BME280;21840;44.920;8.616;2023-02-11T01:43:49;102577.75;;;1.79;45.19
35716;BME280;21840;44.920;8.616;2023-02-11T01:46:32;102583.28;;;1.56;45.50
35716;BME280;21840;44.920;8.616;2023-02-11T01:49:11;102578.88;;;1.63;45.54
35716;BME280;21840;44.920;8.616;2023-02-11T01:51:41;102572.06;;;1.54;45.20
35716;BME280;21840;44.920;8.616;2023-02-11T01:54:11;102565.56;;;1.84;45.56
35716;BME280;21840;44.920;8.616;2023-02-11T01:56:59;102567.41;;;1.78;45.41
35716;BME280;21840;44.920;8.616;2023-02-11T02:02:33;102568.75;;;1.44;45.39
35716;BME280;21840;44.920;8.616;2023-02-11T02:05:25;102562.56;;;2.09;44.61
35716;BME280;21840;44.920;8.616;2023-02-11T02:07:59;102555.06;;;1.92;44.48
35716;BME280;21840;44.920;8.616;2023-02-11T02:10:27;102554.84;;;1.51;45.34
35716;BME280;21840;44.920;8.616;2023-02-11T02:12:53;102543.03;;;1.32;45.75
35716;BME280;21840;44.920;8.616;2023-02-11T02:20:29;102547.16;;;2.01;44.54
35716;BME280;21840;44.920;8.616;2023-02-11T02:25:54;102548.50;;;2.24;43.79
35716;BME280;21840;44.920;8.616;2023-02-11T02:34:35;102538.59;;;1.43;45.21
35716;BME280;21840;44.920;8.616;2023-02-11T02:37:19;102531.41;;;1.62;45.60
35716;BME280;21840;44.920;8.616;2023-02-11T02:39:48;102537.47;;;1.60;45.66
35716;BME280;21840;44.920;8.616;2023-02-11T02:42:14;102539.13;;;1.65;45.53
35716;BME280;21840;44.920;8.616;2023-02-11T02:44:47;102534.06;;;1.56;45.35
35716;BME280;21840;44.920;8.616;2023-02-11T02:47:12;102529.50;;;1.73;45.15
35716;BME280;21840;44.920;8.616;2023-02-11T02:49:38;102535.22;;;1.37;46.35
35716;BME280;21840;44.920;8.616;2023-02-11T02:52:35;102531.22;;;1.14;45.90
35716;BME280;21840;44.920;8.616;2023-02-11T03:05:56;102515.94;;;0.96;45.90
35716;BME280;21840;44.920;8.616;2023-02-11T03:08:51;102527.59;;;0.62;46.90
35716;BME280;21840;44.920;8.616;2023-02-11T03:11:20;102526.88;;;0.48;46.94
35716;BME280;21840;44.920;8.616;2023-02-11T03:13:47;102515.50;;;0.63;47.45
35716;BME280;21840;44.920;8.616;2023-02-11T03:16:17;102518.34;;;0.37;47.86
35716;BME280;21840;44.920;8.616;2023-02-11T03:18:48;102519.28;;;0.33;48.02
35716;BME280;21840;44.920;8.616;2023-02-11T03:21:15;102519.72;;;0.69;47.58
35716;BME280;21840;44.920;8.616;2023-02-11T03:23:55;102525.75;;;1.34;45.09
35716;BME280;21840;44.920;8.616;2023-02-11T03:26:27;102523.28;;;1.28;45.45
35716;BME280;21840;44.920;8.616;2023-02-11T03:31:37;102517.72;;;0.92;45.92
35716;BME280;21840;44.920;8.616;2023-02-11T03:36:44;102528.03;;;0.18;47.19
35716;BME280;21840;44.920;8.616;2023-02-11T03:39:18;102527.00;;;0.36;47.45
35716;BME280;21840;44.920;8.616;2023-02-11T03:41:46;102518.47;;;0.28;47.37
35716;BME280;21840;44.920;8.616;2023-02-11T03:44:14;102516.66;;;0.36;46.91
35716;BME280;21840;44.920;8.616;2023-02-11T03:46:47;102513.28;;;0.31;46.90
35716;BME280;21840;44.920;8.616;2023-02-11T03:49:17;102510.56;;;0.40;47.01
35716;BME280;21840;44.920;8.616;2023-02-11T03:51:45;102502.75;;;0.46;46.54
35716;BME280;21840;44.920;8.616;2023-02-11T03:54:15;102501.78;;;0.55;46.75
35716;BME280;21840;44.920;8.616;2023-02-11T03:56:48;102500.00;;;0.60;46.99
35716;BME280;21840;44.920;8.616;2023-02-11T03:59:15;102508.88;;;1.07;45.90
35716;BME280;21840;44.920;8.616;2023-02-11T04:01:40;102492.22;;;1.28;45.85
35716;BME280;21840;44.920;8.616;2023-02-11T04:04:05;102498.47;;;1.12;46.47
35716;BME280;21840;44.920;8.616;2023-02-11T04:06:31;102506.06;;;1.24;45.61
35716;BME280;21840;44.920;8.616;2023-02-11T04:08:56;102499.97;;;1.28;45.34
35716;BME280;21840;44.920;8.616;2023-02-11T04:11:22;102501.19;;;1.04;46.27
35716;BME280;21840;44.920;8.616;2023-02-11T04:13:47;102497.63;;;1.11;45.86
35716;BME280;21840;44.920;8.616;2023-02-11T04:16:12;102491.84;;;0.94;46.31
35716;BME280;21840;44.920;8.616;2023-02-11T04:18:38;102495.09;;;1.06;45.65
35716;BME280;21840;44.920;8.616;2023-02-11T04:21:03;102494.34;;;0.98;45.32
35716;BME280;21840;44.920;8.616;2023-02-11T04:23:29;102482.28;;;0.99;46.18
35716;BME280;21840;44.920;8.616;2023-02-11T04:25:54;102481.47;;;0.94;46.13
35716;BME280;21840;44.920;8.616;2023-02-11T04:28:20;102489.75;;;0.54;46.96
35716;BME280;21840;44.920;8.616;2023-02-11T04:30:45;102488.53;;;0.82;46.00
35716;BME280;21840;44.920;8.616;2023-02-11T04:33:13;102487.72;;;0.80;45.95
35716;BME280;21840;44.920;8.616;2023-02-11T04:35:38;102481.78;;;0.71;46.41
35716;BME280;21840;44.920;8.616;2023-02-11T04:38:04;102487.91;;;0.62;46.32
35716;BME280;21840;44.920;8.616;2023-02-11T04:40:29;102487.28;;;0.43;46.01
35716;BME280;21840;44.920;8.616;2023-02-11T04:42:55;102480.44;;;0.39;46.04
35716;BME280;21840;44.920;8.616;2023-02-11T04:45:20;102484.41;;;0.68;45.74
35716;BME280;21840;44.920;8.616;2023-02-11T04:47:45;102476.97;;;0.40;45.84
35716;BME280;21840;44.920;8.616;2023-02-11T04:50:11;102480.56;;;0.28;46.85
35716;BME280;21840;44.920;8.616;2023-02-11T04:52:36;102484.31;;;-0.05;47.01
35716;BME280;21840;44.920;8.616;2023-02-11T04:55:02;102488.44;;;0.16;46.39
35716;BME280;21840;44.920;8.616;2023-02-11T04:57:28;102481.16;;;0.52;45.28
35716;BME280;21840;44.920;8.616;2023-02-11T04:59:53;102484.81;;;0.35;45.56
35716;BME280;21840;44.920;8.616;2023-02-11T05:02:19;102473.66;;;0.27;46.45
35716;BME280;21840;44.920;8.616;2023-02-11T05:04:44;102470.09;;;0.37;45.87
35716;BME280;21840;44.920;8.616;2023-02-11T05:07:09;102472.38;;;-0.12;46.24
35716;BME280;21840;44.920;8.616;2023-02-11T05:09:35;102470.28;;;0.24;45.78
35716;BME280;21840;44.920;8.616;2023-02-11T05:12:00;102468.06;;;-0.13;46.24
35716;BME280;21840;44.920;8.616;2023-02-11T05:14:26;102468.50;;;0.27;46.00
35716;BME280;21840;44.920;8.616;2023-02-11T05:16:51;102470.25;;;0.27;47.56
35716;BME280;21840;44.920;8.616;2023-02-11T05:19:17;102474.28;;;0.49;46.53
35716;BME280;21840;44.920;8.616;2023-02-11T05:21:42;102466.75;;;0.31;46.90
35716;BME280;21840;44.920;8.616;2023-02-11T05:24:08;102471.53;;;-0.14;46.87
35716;BME280;21840;44.920;8.616;2023-02-11T05:26:33;102475.69;;;-0.01;46.52
35716;BME280;21840;44.920;8.616;2023-02-11T05:28:59;102473.19;;;-0.09;47.10
35716;BME280;21840;44.920;8.616;2023-02-11T05:31:24;102476.63;;;-0.07;46.97
35716;BME280;21840;44.920;8.616;2023-02-11T05:33:49;102473.94;;;0.01;47.19
35716;BME280;21840;44.920;8.616;2023-02-11T05:36:15;102467.22;;;-0.15;47.14
35716;BME280;21840;44.920;8.616;2023-02-11T05:38:41;102464.69;;;-0.23;47.84
35716;BME280;21840;44.920;8.616;2023-02-11T05:41:08;102463.88;;;-0.27;47.55
35716;BME280;21840;44.920;8.616;2023-02-11T05:43:34;102468.88;;;-0.08;46.63
35716;BME280;21840;44.920;8.616;2023-02-11T05:46:02;102469.53;;;0.12;46.60
35716;BME280;21840;44.920;8.616;2023-02-11T05:48:27;102467.69;;;0.24;46.44
35716;BME280;21840;44.920;8.616;2023-02-11T05:50:53;102462.84;;;-0.10;46.59
35716;BME280;21840;44.920;8.616;2023-02-11T05:53:18;102460.34;;;-0.16;47.90
35716;BME280;21840;44.920;8.616;2023-02-11T05:55:44;102461.00;;;0.06;47.12
35716;BME280;21840;44.920;8.616;2023-02-11T05:58:10;102459.53;;;-0.23;48.18
35716;BME280;21840;44.920;8.616;2023-02-11T06:00:35;102448.25;;;-0.13;47.12
35716;BME280;21840;44.920;8.616;2023-02-11T06:03:01;102452.53;;;-0.09;47.56
35716;BME280;21840;44.920;8.616;2023-02-11T06:05:28;102452.00;;;-0.45;48.43
35716;BME280;21840;44.920;8.616;2023-02-11T06:07:54;102444.16;;;-0.34;47.84
35716;BME280;21840;44.920;8.616;2023-02-11T06:10:20;102450.09;;;-0.24;48.36
35716;BME280;21840;44.920;8.616;2023-02-11T06:12:45;102448.34;;;-0.22;47.68
35716;BME280;21840;44.920;8.616;2023-02-11T06:15:11;102455.09;;;-0.09;47.25
35716;BME280;21840;44.920;8.616;2023-02-11T06:17:36;102453.38;;;-0.07;47.38
35716;BME280;21840;44.920;8.616;2023-02-11T06:20:05;102459.25;;;0.05;47.27
35716;BME280;21840;44.920;8.616;2023-02-11T06:22:31;102443.69;;;0.15;46.58
35716;BME280;21840;44.920;8.616;2023-02-11T06:24:56;102449.25;;;-0.25;47.80
35716;BME280;21840;44.920;8.616;2023-02-11T06:27:22;102456.16;;;-0.27;47.73
35716;BME280;21840;44.920;8.616;2023-02-11T06:29:47;102442.38;;;-0.30;47.44
35716;BME280;21840;44.920;8.616;2023-02-11T06:32:14;102454.97;;;0.05;46.65
35716;BME280;21840;44.920;8.616;2023-02-11T06:34:39;102441.63;;;0.43;46.05
35716;BME280;21840;44.920;8.616;2023-02-11T06:37:05;102441.84;;;0.22;47.11
35716;BME280;21840;44.920;8.616;2023-02-11T06:39:31;102444.06;;;0.54;46.42
35716;BME280;21840;44.920;8.616;2023-02-11T06:41:56;102449.78;;;0.07;47.13
35716;BME280;21840;44.920;8.616;2023-02-11T06:44:22;102448.16;;;-0.02;47.60
35716;BME280;21840;44.920;8.616;2023-02-11T06:46:47;102443.59;;;0.23;47.35
35716;BME280;21840;44.920;8.616;2023-02-11T06:49:13;102440.38;;;-0.01;47.04
35716;BME280;21840;44.920;8.616;2023-02-11T06:51:38;102443.59;;;0.21;46.75
35716;BME280;21840;44.920;8.616;2023-02-11T06:54:04;102437.25;;;0.50;46.86
35716;BME280;21840;44.920;8.616;2023-02-11T06:56:31;102433.03;;;0.41;46.64
35716;BME280;21840;44.920;8.616;2023-02-11T06:58:56;102436.94;;;0.72;46.45
35716;BME280;21840;44.920;8.616;2023-02-11T07:01:23;102434.94;;;0.24;46.92
35716;BME280;21840;44.920;8.616;2023-02-11T07:03:49;102439.97;;;0.36;47.69
35716;BME280;21840;44.920;8.616;2023-02-11T07:06:18;102447.59;;;0.50;46.58
35716;BME280;21840;44.920;8.616;2023-02-11T07:08:45;102449.66;;;0.90;45.99
35716;BME280;21840;44.920;8.616;2023-02-11T07:11:16;102448.59;;;0.37;47.03
35716;BME280;21840;44.920;8.616;2023-02-11T07:13:42;102438.84;;;0.57;46.55
35716;BME280;21840;44.920;8.616;2023-02-11T07:16:11;102439.13;;;0.36;46.47
35716;BME280;21840;44.920;8.616;2023-02-11T07:18:37;102447.75;;;0.35;47.48
35716;BME280;21840;44.920;8.616;2023-02-11T07:21:07;102442.75;;;0.19;47.01
35716;BME280;21840;44.920;8.616;2023-02-11T07:23:34;102440.44;;;0.71;46.13
35716;BME280;21840;44.920;8.616;2023-02-11T07:26:11;102448.38;;;0.55;46.16
35716;BME280;21840;44.920;8.616;2023-02-11T07:28:37;102443.44;;;0.35;46.46
35716;BME280;21840;44.920;8.616;2023-02-11T07:31:10;102439.53;;;0.72;45.60
35716;BME280;21840;44.920;8.616;2023-02-11T07:33:36;102439.91;;;1.07;45.41
35716;BME280;21840;44.920;8.616;2023-02-11T07:36:04;102441.84;;;1.49;44.85
35716;BME280;21840;44.920;8.616;2023-02-11T07:38:31;102447.69;;;1.07;45.70
35716;BME280;21840;44.920;8.616;2023-02-11T07:41:05;102445.00;;;1.12;45.64
35716;BME280;21840;44.920;8.616;2023-02-11T07:43:31;102444.84;;;1.23;45.10
35716;BME280;21840;44.920;8.616;2023-02-11T07:45:57;102454.22;;;1.30;45.91
35716;BME280;21840;44.920;8.616;2023-02-11T07:48:22;102453.16;;;1.43;44.74
35716;BME280;21840;44.920;8.616;2023-02-11T07:50:48;102450.09;;;1.72;44.22
35716;BME280;21840;44.920;8.616;2023-02-11T07:53:14;102447.56;;;1.68;44.12
35716;BME280;21840;44.920;8.616;2023-02-11T07:55:39;102452.63;;;1.74;44.19
35716;BME280;21840;44.920;8.616;2023-02-11T07:58:06;102463.78;;;2.27;43.51
35716;BME280;21840;44.920;8.616;2023-02-11T08:00:31;102453.31;;;1.85;43.99
35716;BME280;21840;44.920;8.616;2023-02-11T08:02:57;102462.94;;;2.25;43.44
35716;BME280;21840;44.920;8.616;2023-02-11T08:05:22;102461.63;;;2.03;43.25
35716;BME280;21840;44.920;8.616;2023-02-11T08:07:52;102470.00;;;2.17;42.90
35716;BME280;21840;44.920;8.616;2023-02-11T08:10:18;102463.03;;;2.21;42.53
35716;BME280;21840;44.920;8.616;2023-02-11T08:12:43;102463.09;;;2.18;42.95
35716;BME280;21840;44.920;8.616;2023-02-11T08:15:09;102469.38;;;2.49;42.62
35716;BME280;21840;44.920;8.616;2023-02-11T08:17:35;102472.78;;;2.51;42.48
35716;BME280;21840;44.920;8.616;2023-02-11T08:20:01;102480.16;;;2.71;41.50
35716;BME280;21840;44.920;8.616;2023-02-11T08:22:30;102470.88;;;2.59;41.94
35716;BME280;21840;44.920;8.616;2023-02-11T08:24:56;102475.69;;;2.78;41.72
35716;BME280;21840;44.920;8.616;2023-02-11T08:27:23;102477.72;;;2.64;42.28
35716;BME280;21840;44.920;8.616;2023-02-11T08:29:48;102461.84;;;2.79;41.90
35716;BME280;21840;44.920;8.616;2023-02-11T08:32:14;102473.06;;;3.18;41.30
35716;BME280;21840;44.920;8.616;2023-02-11T08:34:39;102471.09;;;2.91;41.20
35716;BME280;21840;44.920;8.616;2023-02-11T08:37:05;102457.13;;;3.34;41.63
35716;BME280;21840;44.920;8.616;2023-02-11T08:39:30;102460.25;;;3.48;41.18
35716;BME280;21840;44.920;8.616;2023-02-11T08:41:56;102459.31;;;3.52;41.22
35716;BME280;21840;44.920;8.616;2023-02-11T08:44:23;102464.19;;;3.64;41.02
35716;BME280;21840;44.920;8.616;2023-02-11T08:46:49;102469.56;;;3.91;40.22
35716;BME280;21840;44.920;8.616;2023-02-11T08:49:15;102458.66;;;4.42;39.43
35716;BME280;21840;44.920;8.616;2023-02-11T08:51:41;102462.09;;;4.11;39.70
35716;BME280;21840;44.920;8.616;2023-02-11T08:54:07;102454.03;;;4.52;39.45
35716;BME280;21840;44.920;8.616;2023-02-11T08:56:35;102455.47;;;4.62;38.79
35716;BME280;21840;44.920;8.616;2023-02-11T08:59:00;102450.31;;;4.61;39.11
35716;BME280;21840;44.920;8.616;2023-02-11T09:01:29;102446.53;;;4.71;39.06
35716;BME280;21840;44.920;8.616;2023-02-11T09:03:56;102456.06;;;4.42;39.74
35716;BME280;21840;44.920;8.616;2023-02-11T09:06:23;102447.44;;;4.70;39.68
35716;BME280;21840;44.920;8.616;2023-02-11T09:08:51;102447.94;;;4.53;40.55
35716;BME280;21840;44.920;8.616;2023-02-11T09:11:20;102442.94;;;5.03;39.36
35716;BME280;21840;44.920;8.616;2023-02-11T09:13:46;102445.13;;;4.89;39.44
35716;BME280;21840;44.920;8.616;2023-02-11T09:16:17;102455.31;;;5.25;38.47
35716;BME280;21840;44.920;8.616;2023-02-11T09:18:43;102450.34;;;5.44;38.30
35716;BME280;21840;44.920;8.616;2023-02-11T09:21:09;102456.00;;;5.56;37.18
35716;BME280;21840;44.920;8.616;2023-02-11T09:23:35;102451.59;;;5.58;38.22
35716;BME280;21840;44.920;8.616;2023-02-11T09:26:08;102447.94;;;5.37;38.65
35716;BME280;21840;44.920;8.616;2023-02-11T09:28:34;102451.59;;;5.83;37.72
35716;BME280;21840;44.920;8.616;2023-02-11T09:31:05;102451.13;;;5.72;37.60
35716;BME280;21840;44.920;8.616;2023-02-11T09:33:30;102439.59;;;6.53;36.41
35716;BME280;21840;44.920;8.616;2023-02-11T09:36:00;102428.81;;;6.62;36.58
35716;BME280;21840;44.920;8.616;2023-02-11T09:38:25;102439.78;;;6.94;36.65
35716;BME280;21840;44.920;8.616;2023-02-11T09:40:51;102443.47;;;6.88;35.94
35716;BME280;21840;44.920;8.616;2023-02-11T09:43:19;102440.22;;;7.26;35.61
35716;BME280;21840;44.920;8.616;2023-02-11T09:45:46;102436.69;;;7.49;35.57
35716;BME280;21840;44.920;8.616;2023-02-11T09:48:17;102442.66;;;7.30;36.04
35716;BME280;21840;44.920;8.616;2023-02-11T09:51:02;102450.47;;;7.52;35.68
35716;BME280;21840;44.920;8.616;2023-02-11T09:53:34;102439.75;;;7.59;35.67
35716;BME280;21840;44.920;8.616;2023-02-11T09:56:09;102437.25;;;7.35;36.95
35716;BME280;21840;44.920;8.616;2023-02-11T09:58:38;102437.34;;;7.95;36.08
35716;BME280;21840;44.920;8.616;2023-02-11T10:06:48;102429.34;;;7.98;34.92
35716;BME280;21840;44.920;8.616;2023-02-11T10:09:25;102436.41;;;7.96;34.52
35716;BME280;21840;44.920;8.616;2023-02-11T10:17:17;102429.97;;;8.44;34.28
35716;BME280;21840;44.920;8.616;2023-02-11T10:20:14;102425.09;;;7.95;34.43
35716;BME280;21840;44.920;8.616;2023-02-11T10:22:46;102418.59;;;7.44;34.75
35716;BME280;21840;44.920;8.616;2023-02-11T10:25:20;102426.16;;;8.31;34.18
35716;BME280;21840;44.920;8.616;2023-02-11T10:27:46;102434.88;;;8.31;34.35
35716;BME280;21840;44.920;8.616;2023-02-11T10:30:23;102425.50;;;8.07;35.25
35716;BME280;21840;44.920;8.616;2023-02-11T10:32:56;102431.38;;;8.31;35.17
35716;BME280;21840;44.920;8.616;2023-02-11T10:35:24;102434.53;;;8.39;34.60
35716;BME280;21840;44.920;8.616;2023-02-11T10:37:52;102439.13;;;8.34;34.66
35716;BME280;21840;44.920;8.616;2023-02-11T10:40:20;102436.75;;;8.48;33.93
35716;BME280;21840;44.920;8.616;2023-02-11T10:42:52;102429.63;;;9.07;32.92
35716;BME280;21840;44.920;8.616;2023-02-11T10:45:29;102434.47;;;8.78;33.93
35716;BME280;21840;44.920;8.616;2023-02-11T10:47:56;102439.13;;;9.10;33.80
35716;BME280;21840;44.920;8.616;2023-02-11T10:50:31;102433.91;;;9.27;33.34
35716;BME280;21840;44.920;8.616;2023-02-11T10:53:19;102428.91;;;9.40;32.79
35716;BME280;21840;44.920;8.616;2023-02-11T10:56:03;102430.97;;;9.50;33.08
35716;BME280;21840;44.920;8.616;2023-02-11T10:58:36;102433.47;;;9.71;32.40
35716;BME280;21840;44.920;8.616;2023-02-11T11:01:04;102432.59;;;9.36;32.64
35716;BME280;21840;44.920;8.616;2023-02-11T11:03:36;102432.47;;;9.56;32.52
35716;BME280;21840;44.920;8.616;2023-02-11T11:06:07;102422.47;;;9.80;32.02
35716;BME280;21840;44.920;8.616;2023-02-11T11:08:47;102423.81;;;9.71;32.07
35716;BME280;21840;44.920;8.616;2023-02-11T11:11:20;102415.91;;;9.89;31.45
35716;BME280;21840;44.920;8.616;2023-02-11T11:16:21;102405.91;;;10.46;30.83
35716;BME280;21840;44.920;8.616;2023-02-11T11:18:52;102408.34;;;10.81;30.53
35716;BME280;21840;44.920;8.616;2023-02-11T11:21:24;102406.28;;;11.02;29.85
35716;BME280;21840;44.920;8.616;2023-02-11T11:24:00;102395.00;;;11.16;28.72
35716;BME280;21840;44.920;8.616;2023-02-11T11:26:47;102389.97;;;11.41;28.13
35716;BME280;21840;44.920;8.616;2023-02-11T11:29:22;102383.44;;;11.49;28.16
35716;BME280;21840;44.920;8.616;2023-02-11T11:31:56;102379.03;;;11.63;27.23
35716;BME280;21840;44.920;8.616;2023-02-11T11:34:37;102383.44;;;11.63;26.66
35716;BME280;21840;44.920;8.616;2023-02-11T11:37:25;102380.75;;;11.34;26.43
35716;BME280;21840;44.920;8.616;2023-02-11T11:40:07;102376.69;;;11.59;26.39
35716;BME280;21840;44.920;8.616;2023-02-11T11:42:35;102366.34;;;11.84;26.11
35716;BME280;21840;44.920;8.616;2023-02-11T11:47:52;102359.03;;;11.90;26.29
35716;BME280;21840;44.920;8.616;2023-02-11T11:58:36;102356.63;;;12.69;25.52
35716;BME280;21840;44.920;8.616;2023-02-11T12:26:21;102312.47;;;13.26;23.21
35716;BME280;21840;44.920;8.616;2023-02-11T12:37:08;102298.00;;;13.19;23.47
35716;BME280;21840;44.920;8.616;2023-02-11T12:39:42;102293.25;;;13.11;23.48
35716;BME280;21840;44.920;8.616;2023-02-11T12:42:25;102285.16;;;12.74;23.08
35716;BME280;21840;44.920;8.616;2023-02-11T12:45:23;102281.75;;;12.59;23.53
35716;BME280;21840;44.920;8.616;2023-02-11T12:48:15;102280.22;;;12.42;23.81
35716;BME280;21840;44.920;8.616;2023-02-11T12:56:15;102263.22;;;12.34;23.79
35716;BME280;21840;44.920;8.616;2023-02-11T12:58:43;102259.88;;;12.17;24.17
35716;BME280;21840;44.920;8.616;2023-02-11T13:01:23;102256.00;;;12.23;24.48
35716;BME280;21840;44.920;8.616;2023-02-11T13:03:52;102252.47;;;12.37;24.46
35716;BME280;21840;44.920;8.616;2023-02-11T13:06:27;102236.63;;;12.51;24.74
35716;BME280;21840;44.920;8.616;2023-02-11T13:08:58;102231.69;;;12.59;24.39
35716;BME280;21840;44.920;8.616;2023-02-11T13:11:28;102227.69;;;12.66;24.34
35716;BME280;21840;44.920;8.616;2023-02-11T13:14:08;102226.47;;;12.45;24.28
35716;BME280;21840;44.920;8.616;2023-02-11T13:16:45;102224.09;;;12.27;24.20
35716;BME280;21840;44.920;8.616;2023-02-11T13:21:52;102216.44;;;12.37;23.69
35716;BME280;21840;44.920;8.616;2023-02-11T13:27:03;102201.00;;;12.58;23.00
35716;BME280;21840;44.920;8.616;2023-02-11T13:32:17;102205.41;;;12.45;23.71
35716;BME280;21840;44.920;8.616;2023-02-11T13:37:36;102218.50;;;12.59;22.32
35716;BME280;21840;44.920;8.616;2023-02-11T13:40:20;102221.03;;;12.61;22.48
35716;BME280;21840;44.920;8.616;2023-02-11T13:42:49;102207.06;;;12.73;22.99
35716;BME280;21840;44.920;8.616;2023-02-11T13:45:17;102203.47;;;12.87;23.27
35716;BME280;21840;44.920;8.616;2023-02-11T13:47:56;102206.19;;;12.85;23.35
35716;BME280;21840;44.920;8.616;2023-02-11T13:50:23;102209.03;;;12.82;23.29
35716;BME280;21840;44.920;8.616;2023-02-11T13:52:57;102204.81;;;12.92;22.79
35716;BME280;21840;44.920;8.616;2023-02-11T13:55:24;102205.88;;;13.03;23.19
35716;BME280;21840;44.920;8.616;2023-02-11T14:14:30;102163.38;;;12.94;22.07
35716;BME280;21840;44.920;8.616;2023-02-11T14:19:31;102157.69;;;12.88;21.26
35716;BME280;21840;44.920;8.616;2023-02-11T14:22:48;102155.59;;;12.93;21.17
35716;BME280;21840;44.920;8.616;2023-02-11T14:25:01;102155.78;;;12.90;20.38
35716;BME280;21840;44.920;8.616;2023-02-11T14:27:39;102151.16;;;13.06;20.51
35716;BME280;21840;44.920;8.616;2023-02-11T14:36:22;102139.75;;;13.06;20.32
35716;BME280;21840;44.920;8.616;2023-02-11T14:41:30;102140.41;;;12.84;17.14
35716;BME280;21840;44.920;8.616;2023-02-11T14:44:21;102139.97;;;12.90;16.42
35716;BME280;21840;44.920;8.616;2023-02-11T14:46:49;102145.69;;;12.84;16.68
35716;BME280;21840;44.920;8.616;2023-02-11T14:49:38;102134.06;;;12.73;17.49
35716;BME280;21840;44.920;8.616;2023-02-11T14:54:44;102127.41;;;13.06;18.82
35716;BME280;21840;44.920;8.616;2023-02-11T14:57:17;102132.66;;;13.19;18.82
35716;BME280;21840;44.920;8.616;2023-02-11T14:59:56;102131.72;;;13.33;19.49
35716;BME280;21840;44.920;8.616;2023-02-11T15:02:32;102126.31;;;13.34;18.99
35716;BME280;21840;44.920;8.616;2023-02-11T15:05:21;102124.53;;;13.35;19.25
35716;BME280;21840;44.920;8.616;2023-02-11T15:07:51;102126.56;;;13.31;19.74
35716;BME280;21840;44.920;8.616;2023-02-11T15:12:58;102123.22;;;13.53;19.65
35716;BME280;21840;44.920;8.616;2023-02-11T15:15:25;102114.09;;;13.57;19.99
35716;BME280;21840;44.920;8.616;2023-02-11T15:17:52;102122.03;;;13.57;19.60
35716;BME280;21840;44.920;8.616;2023-02-11T15:20:24;102112.66;;;13.53;19.64
35716;BME280;21840;44.920;8.616;2023-02-11T15:22:56;102112.72;;;13.41;19.47
35716;BME280;21840;44.920;8.616;2023-02-11T15:25:23;102113.03;;;13.60;19.31
35716;BME280;21840;44.920;8.616;2023-02-11T15:27:51;102110.72;;;13.68;19.50
35716;BME280;21840;44.920;8.616;2023-02-11T15:32:53;102114.69;;;13.74;19.32